createdAt,value
2022-09-23T00:00:22.199Z,7.37
2022-09-23T00:01:07.420Z,7.41
2022-09-23T00:01:39.101Z,7.46
2022-09-23T00:02:11.020Z,7.43
2022-09-23T00:02:43.021Z,7.43
2022-09-23T00:03:16.316Z,7.42
2022-09-23T00:03:49.322Z,7.45
2022-09-23T00:04:20.913Z,7.46
2022-09-23T00:04:52.750Z,7.46
2022-09-23T00:05:24.256Z,7.44
2022-09-23T00:06:00.430Z,7.43
2022-09-23T00:06:31.910Z,7.42
2022-09-23T00:07:03.488Z,7.43
2022-09-23T00:07:35.192Z,7.46
2022-09-23T00:08:08.071Z,7.49
2022-09-23T00:08:40.393Z,7.40
2022-09-23T00:09:12.446Z,7.46
2022-09-23T00:09:43.957Z,7.49
2022-09-23T00:10:15.608Z,7.44
2022-09-23T00:10:47.633Z,7.47
2022-09-23T00:11:21.512Z,7.49
2022-09-23T00:11:53.492Z,7.48
2022-09-23T00:12:25.036Z,7.50
2022-09-23T00:12:57.283Z,7.40
2022-09-23T00:13:28.755Z,7.42
2022-09-23T00:14:00.594Z,7.48
2022-09-23T00:14:32.085Z,7.47
2022-09-23T00:15:04.671Z,7.46
2022-09-23T00:15:39.492Z,7.46
2022-09-23T00:16:13.895Z,7.49
2022-09-23T00:16:45.572Z,7.50
2022-09-23T00:17:17.085Z,7.52
2022-09-23T00:17:48.595Z,7.62
2022-09-23T00:18:21.107Z,7.61
2022-09-23T00:18:52.620Z,7.56
2022-09-23T00:19:24.112Z,7.57
2022-09-23T00:19:55.681Z,7.62
2022-09-23T00:20:28.465Z,7.64
2022-09-23T00:21:08.456Z,7.67
2022-09-23T00:21:40.126Z,7.68
2022-09-23T00:22:12.172Z,7.63
2022-09-23T00:22:44.205Z,7.48
2022-09-23T00:23:15.721Z,7.50
2022-09-23T00:23:47.774Z,7.54
2022-09-23T00:24:19.721Z,7.58
2022-09-23T00:24:51.333Z,7.50
2022-09-23T00:25:22.815Z,7.55
2022-09-23T00:26:02.470Z,7.56
2022-09-23T00:26:34.285Z,7.53
2022-09-23T00:27:06.050Z,7.53
2022-09-23T00:27:38.699Z,7.53
2022-09-23T00:28:10.215Z,7.54
2022-09-23T00:28:42.743Z,7.52
2022-09-23T00:29:15.996Z,7.39
2022-09-23T00:29:48.412Z,7.48
2022-09-23T00:30:20.115Z,7.49
2022-09-23T00:30:51.857Z,7.50
2022-09-23T00:31:25.388Z,7.49
2022-09-23T00:31:56.954Z,7.50
2022-09-23T00:32:31.606Z,7.51
2022-09-23T00:33:03.112Z,7.51
2022-09-23T00:33:34.605Z,7.48
2022-09-23T00:34:06.181Z,7.50
2022-09-23T00:34:37.932Z,7.43
2022-09-23T00:35:09.583Z,7.38
2022-09-23T00:35:41.058Z,7.39
2022-09-23T00:36:17.618Z,7.39
2022-09-23T00:36:49.346Z,7.41
2022-09-23T00:37:21.172Z,7.37
2022-09-23T00:37:52.685Z,7.38
2022-09-23T00:38:24.317Z,7.42
2022-09-23T00:38:56.071Z,7.36
2022-09-23T00:39:27.561Z,7.35
2022-09-23T00:40:00.728Z,7.37
2022-09-23T00:40:32.555Z,7.36
2022-09-23T00:41:04.290Z,7.29
2022-09-23T00:41:36.485Z,7.33
2022-09-23T00:42:16.306Z,7.33
2022-09-23T00:42:52.114Z,7.34
2022-09-23T00:43:52.937Z,7.29
2022-09-23T00:44:43.230Z,7.34
2022-09-23T00:45:15.877Z,7.34
2022-09-23T00:45:50.188Z,7.39
2022-09-23T00:46:25.404Z,7.37
2022-09-23T00:46:57.178Z,7.37
2022-09-23T00:47:41.898Z,7.33
2022-09-23T00:48:20.661Z,7.31
2022-09-23T00:48:56.898Z,7.26
2022-09-23T00:49:29.514Z,7.29
2022-09-23T00:50:08.949Z,7.35
2022-09-23T00:50:42.808Z,7.31
2022-09-23T00:51:17.982Z,7.28
2022-09-23T00:51:57.693Z,7.32
2022-09-23T00:52:29.724Z,7.33
2022-09-23T00:53:04.216Z,7.26
2022-09-23T00:53:35.937Z,7.30
2022-09-23T00:54:07.985Z,7.29
2022-09-23T00:54:40.106Z,7.31
2022-09-23T00:55:15.600Z,7.23
2022-09-23T00:55:50.569Z,7.27
2022-09-23T00:56:23.495Z,7.26
2022-09-23T00:56:55.916Z,7.28
2022-09-23T00:57:27.565Z,7.13
2022-09-23T00:58:01.792Z,7.13
2022-09-23T00:58:34.541Z,7.19
2022-09-23T00:59:07.411Z,7.18
2022-09-23T00:59:39.103Z,7.15
2022-09-23T01:00:11.319Z,7.16
2022-09-23T01:00:42.993Z,7.20
2022-09-23T01:01:14.602Z,7.18
2022-09-23T01:01:46.485Z,7.16
2022-09-23T01:02:21.104Z,7.23
2022-09-23T01:02:53.128Z,7.20
2022-09-23T01:03:24.680Z,7.22
2022-09-23T01:03:57.594Z,7.23
2022-09-23T01:04:29.968Z,7.25
2022-09-23T01:05:03.918Z,7.23
2022-09-23T01:05:36.439Z,7.21
2022-09-23T01:06:08.205Z,7.18
2022-09-23T01:06:39.672Z,7.09
2022-09-23T01:07:11.254Z,7.12
2022-09-23T01:07:43.323Z,7.10
2022-09-23T01:08:15.638Z,7.09
2022-09-23T01:08:47.760Z,7.10
2022-09-23T01:09:20.600Z,7.06
2022-09-23T01:09:52.117Z,7.07
2022-09-23T01:10:24.098Z,7.06
2022-09-23T01:11:01.118Z,7.09
2022-09-23T01:11:44.633Z,7.11
2022-09-23T01:12:33.943Z,7.07
2022-09-23T01:13:16.091Z,7.12
2022-09-23T01:14:27.486Z,7.17
2022-09-23T01:15:22.994Z,7.12
2022-09-23T01:16:23.658Z,7.12
2022-09-23T01:17:21.807Z,7.22
2022-09-23T01:18:16.338Z,7.17
2022-09-23T01:19:03.010Z,7.16
2022-09-23T01:19:49.689Z,7.19
2022-09-23T01:21:09.305Z,7.17
2022-09-23T01:22:05.033Z,7.19
2022-09-23T01:22:44.033Z,7.23
2022-09-23T01:23:27.381Z,7.22
2022-09-23T01:24:19.811Z,7.19
2022-09-23T01:25:15.985Z,7.23
2022-09-23T01:25:56.543Z,7.24
2022-09-23T01:27:22.155Z,7.30
2022-09-23T01:28:25.986Z,7.20
2022-09-23T01:29:27.150Z,7.19
2022-09-23T01:30:16.686Z,7.16
2022-09-23T01:31:04.762Z,7.17
2022-09-23T01:32:05.765Z,7.15
2022-09-23T01:32:37.321Z,7.18
2022-09-23T01:33:46.140Z,7.08
2022-09-23T01:34:28.874Z,7.06
2022-09-23T01:35:10.356Z,7.04
2022-09-23T01:35:50.637Z,7.05
2022-09-23T01:36:25.664Z,7.04
2022-09-23T01:37:09.293Z,7.00
2022-09-23T01:37:48.426Z,7.06
2022-09-23T01:38:34.652Z,7.06
2022-09-23T01:39:14.853Z,7.04
2022-09-23T01:40:01.775Z,7.05
2022-09-23T01:40:54.049Z,7.06
2022-09-23T01:41:34.335Z,7.05
2022-09-23T01:42:17.342Z,7.09
2022-09-23T01:43:00.716Z,7.02
2022-09-23T01:43:37.997Z,7.11
2022-09-23T01:44:29.480Z,7.05
2022-09-23T01:45:15.153Z,6.99
2022-09-23T01:45:48.130Z,7.01
2022-09-23T01:46:28.183Z,6.94
2022-09-23T01:47:06.715Z,6.96
2022-09-23T01:47:42.696Z,7.01
2022-09-23T01:48:39.367Z,6.95
2022-09-23T01:49:16.569Z,6.92
2022-09-23T01:50:29.010Z,6.87
2022-09-23T01:51:07.841Z,6.90
2022-09-23T01:51:44.181Z,6.91
2022-09-23T01:52:23.983Z,6.89
2022-09-23T01:53:00.101Z,6.92
2022-09-23T01:53:50.301Z,6.94
2022-09-23T01:54:43.135Z,6.93
2022-09-23T01:55:28.356Z,6.96
2022-09-23T01:56:04.849Z,6.95
2022-09-23T01:56:40.768Z,6.98
2022-09-23T01:57:19.404Z,6.95
2022-09-23T01:57:57.949Z,6.86
2022-09-23T01:58:36.170Z,6.88
2022-09-23T01:59:26.576Z,6.90
2022-09-23T02:00:27.768Z,6.87
2022-09-23T02:01:05.079Z,6.88
2022-09-23T02:01:42.120Z,6.89
2022-09-23T02:02:37.610Z,6.89
2022-09-23T02:03:16.949Z,6.91
2022-09-23T02:03:55.419Z,6.85
2022-09-23T02:04:40.669Z,6.85
2022-09-23T02:05:18.415Z,6.89
2022-09-23T02:06:03.698Z,6.91
2022-09-23T02:06:46.514Z,6.88
2022-09-23T02:07:22.230Z,6.86
2022-09-23T02:07:59.382Z,6.77
2022-09-23T02:08:36.741Z,6.84
2022-09-23T02:09:12.888Z,6.86
2022-09-23T02:09:48.491Z,6.83
2022-09-23T02:10:25.118Z,6.82
2022-09-23T02:11:01.196Z,6.78
2022-09-23T02:11:36.287Z,6.84
2022-09-23T02:12:12.793Z,6.76
2022-09-23T02:12:47.197Z,6.74
2022-09-23T02:13:42.032Z,6.72
2022-09-23T02:14:23.348Z,6.68
2022-09-23T02:15:02.992Z,6.66
2022-09-23T02:15:42.018Z,6.59
2022-09-23T02:16:39.400Z,6.63
2022-09-23T02:17:15.798Z,6.61
2022-09-23T02:17:56.070Z,6.60
2022-09-23T02:18:39.138Z,6.54
2022-09-23T02:19:18.306Z,6.54
2022-09-23T02:19:57.538Z,6.58
2022-09-23T02:20:31.184Z,6.49
2022-09-23T02:21:07.488Z,6.46
2022-09-23T02:21:42.919Z,6.39
2022-09-23T02:22:25.978Z,6.43
2022-09-23T02:23:07.663Z,6.44
2022-09-23T02:23:52.176Z,6.44
2022-09-23T02:24:28.787Z,6.46
2022-09-23T02:25:00.592Z,6.48
2022-09-23T02:25:58.192Z,6.34
2022-09-23T02:26:41.299Z,6.39
2022-09-23T02:27:39.798Z,6.42
2022-09-23T02:28:32.661Z,6.41
2022-09-23T02:29:21.927Z,6.42
2022-09-23T02:30:15.192Z,6.43
2022-09-23T02:30:51.732Z,6.40
2022-09-23T02:31:33.624Z,6.40
2022-09-23T02:32:46.973Z,6.40
2022-09-23T02:33:24.773Z,6.41
2022-09-23T02:34:06.542Z,6.37
2022-09-23T02:35:23.430Z,6.38
2022-09-23T02:36:00.161Z,6.37
2022-09-23T02:36:44.876Z,6.36
2022-09-23T02:37:28.734Z,6.36
2022-09-23T02:38:15.224Z,6.37
2022-09-23T02:38:51.346Z,6.39
2022-09-23T02:39:27.188Z,6.31
2022-09-23T02:40:16.687Z,6.26
2022-09-23T02:40:54.598Z,6.27
2022-09-23T02:41:50.109Z,6.29
2022-09-23T02:42:25.760Z,6.25
2022-09-23T02:43:15.024Z,6.27
2022-09-23T02:43:56.493Z,6.22
2022-09-23T02:44:28.742Z,6.18
2022-09-23T02:45:00.250Z,6.19
2022-09-23T02:45:33.103Z,6.17
2022-09-23T02:46:06.232Z,6.19
2022-09-23T02:46:38.403Z,6.22
2022-09-23T02:47:10.677Z,6.19
2022-09-23T02:47:44.485Z,6.16
2022-09-23T02:48:23.165Z,6.08
2022-09-23T02:49:11.200Z,6.03
2022-09-23T02:49:42.684Z,6.06
2022-09-23T02:50:14.235Z,6.04
2022-09-23T02:50:47.725Z,6.04
2022-09-23T02:51:19.613Z,6.03
2022-09-23T02:51:52.275Z,5.96
2022-09-23T02:52:25.017Z,5.94
2022-09-23T02:52:56.553Z,5.90
2022-09-23T02:53:28.846Z,5.95
2022-09-23T02:54:02.630Z,5.97
2022-09-23T02:54:34.913Z,6.03
2022-09-23T02:55:08.789Z,6.00
2022-09-23T02:55:41.422Z,5.95
2022-09-23T02:56:19.641Z,5.98
2022-09-23T02:56:53.233Z,5.89
2022-09-23T02:57:24.787Z,5.80
2022-09-23T02:57:56.297Z,5.84
2022-09-23T02:58:28.429Z,5.83
2022-09-23T02:59:00.111Z,5.81
2022-09-23T02:59:32.077Z,5.73
2022-09-23T03:00:05.087Z,5.76
2022-09-23T03:00:50.127Z,5.77
2022-09-23T03:01:47.746Z,5.84
2022-09-23T03:03:11.348Z,5.86
2022-09-23T03:04:06.865Z,5.81
2022-09-23T03:04:42.759Z,5.78
2022-09-23T03:05:25.216Z,5.76
2022-09-23T03:05:58.079Z,5.83
2022-09-23T03:06:33.071Z,5.81
2022-09-23T03:07:33.046Z,5.80
2022-09-23T03:08:20.109Z,5.76
2022-09-23T03:08:58.049Z,5.75
2022-09-23T03:09:38.607Z,5.77
2022-09-23T03:10:42.005Z,5.81
2022-09-23T03:11:13.846Z,5.81
2022-09-23T03:11:49.903Z,5.74
2022-09-23T03:12:41.274Z,5.71
2022-09-23T03:13:29.502Z,5.76
2022-09-23T03:14:17.477Z,5.80
2022-09-23T03:14:59.375Z,5.76
2022-09-23T03:15:36.611Z,5.73
2022-09-23T03:16:20.198Z,5.75
2022-09-23T03:16:57.364Z,5.76
2022-09-23T03:17:36.084Z,5.67
2022-09-23T03:18:18.906Z,5.67
2022-09-23T03:19:15.772Z,5.70
2022-09-23T03:20:01.387Z,5.73
2022-09-23T03:20:36.544Z,5.74
2022-09-23T03:21:13.200Z,5.73
2022-09-23T03:21:50.070Z,5.71
2022-09-23T03:22:27.458Z,5.71
2022-09-23T03:23:01.841Z,5.70
2022-09-23T03:23:35.795Z,5.70
2022-09-23T03:24:09.070Z,5.70
2022-09-23T03:24:44.789Z,5.67
2022-09-23T03:25:19.136Z,5.66
2022-09-23T03:25:54.197Z,5.69
2022-09-23T03:26:31.386Z,5.71
2022-09-23T03:27:05.752Z,5.74
2022-09-23T03:27:39.089Z,5.74
2022-09-23T03:28:11.155Z,5.74
2022-09-23T03:28:43.936Z,5.79
2022-09-23T03:29:16.531Z,5.77
2022-09-23T03:29:49.659Z,5.81
2022-09-23T03:30:21.731Z,5.79
2022-09-23T03:30:54.367Z,5.76
2022-09-23T03:31:26.599Z,5.81
2022-09-23T03:31:59.163Z,5.80
2022-09-23T03:32:32.041Z,5.79
2022-09-23T03:33:06.106Z,5.65
2022-09-23T03:33:38.865Z,5.69
2022-09-23T03:34:18.406Z,5.76
2022-09-23T03:34:51.880Z,5.76
2022-09-23T03:35:24.775Z,5.79
2022-09-23T03:36:19.240Z,5.79
2022-09-23T03:37:01.352Z,5.76
2022-09-23T03:37:40.090Z,5.76
2022-09-23T03:38:17.387Z,5.79
2022-09-23T03:38:52.926Z,5.78
2022-09-23T03:39:37.102Z,5.76
2022-09-23T03:40:17.623Z,5.76
2022-09-23T03:40:51.035Z,5.75
2022-09-23T03:41:32.192Z,5.81
2022-09-23T03:42:08.323Z,5.77
2022-09-23T03:42:39.944Z,5.76
2022-09-23T03:43:14.465Z,5.77
2022-09-23T03:43:46.280Z,5.76
2022-09-23T03:44:19.484Z,5.75
2022-09-23T03:44:57.201Z,5.81
2022-09-23T03:45:32.774Z,5.77
2022-09-23T03:46:05.387Z,5.77
2022-09-23T03:46:37.256Z,5.78
2022-09-23T03:47:08.771Z,5.78
2022-09-23T03:47:40.422Z,5.80
2022-09-23T03:48:13.756Z,5.83
2022-09-23T03:48:45.750Z,5.84
2022-09-23T03:49:19.946Z,5.87
2022-09-23T03:49:52.157Z,5.83
2022-09-23T03:50:24.110Z,5.83
2022-09-23T03:50:55.594Z,5.84
2022-09-23T03:51:27.099Z,5.82
2022-09-23T03:51:59.377Z,5.79
2022-09-23T03:52:31.442Z,5.77
2022-09-23T03:53:02.952Z,5.78
2022-09-23T03:53:34.424Z,5.81
2022-09-23T03:54:06.168Z,5.82
2022-09-23T03:54:37.767Z,5.84
2022-09-23T03:55:10.143Z,5.85
2022-09-23T03:55:41.625Z,5.86
2022-09-23T03:56:13.120Z,5.86
2022-09-23T03:56:44.722Z,5.86
2022-09-23T03:57:16.193Z,5.84
2022-09-23T03:57:48.023Z,5.83
2022-09-23T03:58:19.708Z,5.83
2022-09-23T03:58:51.189Z,5.80
2022-09-23T03:59:22.973Z,5.81
2022-09-23T03:59:54.461Z,5.75
2022-09-23T04:00:26.320Z,5.75
2022-09-23T04:00:58.691Z,5.77
2022-09-23T04:01:30.416Z,5.76
2022-09-23T04:02:02.732Z,5.77
2022-09-23T04:02:34.468Z,5.80
2022-09-23T04:03:10.939Z,5.80
2022-09-23T04:03:43.430Z,5.77
2022-09-23T04:04:14.899Z,5.79
2022-09-23T04:04:46.475Z,5.78
2022-09-23T04:05:18.173Z,5.71
2022-09-23T04:05:49.792Z,5.72
2022-09-23T04:06:21.904Z,5.73
2022-09-23T04:06:56.545Z,5.70
2022-09-23T04:07:28.383Z,5.73
2022-09-23T04:07:59.942Z,5.73
2022-09-23T04:08:31.565Z,5.73
2022-09-23T04:09:03.315Z,5.76
2022-09-23T04:09:35.116Z,5.81
2022-09-23T04:10:07.063Z,5.79
2022-09-23T04:10:41.851Z,5.80
2022-09-23T04:11:13.636Z,5.81
2022-09-23T04:11:45.139Z,5.75
2022-09-23T04:12:16.990Z,5.77
2022-09-23T04:12:48.591Z,5.76
2022-09-23T04:13:20.087Z,5.77
2022-09-23T04:13:51.567Z,5.76
2022-09-23T04:14:23.572Z,5.77
2022-09-23T04:14:55.048Z,5.76
2022-09-23T04:15:26.528Z,5.75
2022-09-23T04:15:58.525Z,5.64
2022-09-23T04:16:30.168Z,5.66
2022-09-23T04:17:01.681Z,5.70
2022-09-23T04:17:33.152Z,5.71
2022-09-23T04:18:04.689Z,5.70
2022-09-23T04:18:36.407Z,5.68
2022-09-23T04:19:12.902Z,5.60
2022-09-23T04:19:45.142Z,5.65
2022-09-23T04:20:17.329Z,5.65
2022-09-23T04:20:48.890Z,5.59
2022-09-23T04:21:20.450Z,5.58
2022-09-23T04:21:51.962Z,5.58
2022-09-23T04:22:23.634Z,5.59
2022-09-23T04:22:56.371Z,5.59
2022-09-23T04:23:28.451Z,5.54
2022-09-23T04:24:00.013Z,5.57
2022-09-23T04:24:31.649Z,5.55
2022-09-23T04:25:03.465Z,5.56
2022-09-23T04:25:34.957Z,5.57
2022-09-23T04:26:06.540Z,5.56
2022-09-23T04:26:39.026Z,5.48
2022-09-23T04:27:10.555Z,5.55
2022-09-23T04:27:42.077Z,5.55
2022-09-23T04:28:13.721Z,5.54
2022-09-23T04:28:45.318Z,5.52
2022-09-23T04:29:16.881Z,5.44
2022-09-23T04:29:48.375Z,5.47
2022-09-23T04:30:19.876Z,5.48
2022-09-23T04:30:51.404Z,5.50
2022-09-23T04:31:23.894Z,5.48
2022-09-23T04:31:55.907Z,5.42
2022-09-23T04:32:27.483Z,5.44
2022-09-23T04:32:58.997Z,5.47
2022-09-23T04:33:30.897Z,5.47
2022-09-23T04:34:02.460Z,5.49
2022-09-23T04:34:34.008Z,5.52
2022-09-23T04:35:06.760Z,5.54
2022-09-23T04:35:40.356Z,5.56
2022-09-23T04:36:12.054Z,5.58
2022-09-23T04:36:47.873Z,5.53
2022-09-23T04:37:19.544Z,5.46
2022-09-23T04:37:51.784Z,5.55
2022-09-23T04:38:23.344Z,5.48
2022-09-23T04:38:54.948Z,5.48
2022-09-23T04:39:26.641Z,5.50
2022-09-23T04:39:58.240Z,5.42
2022-09-23T04:40:29.765Z,5.46
2022-09-23T04:41:01.500Z,5.42
2022-09-23T04:41:33.070Z,5.48
2022-09-23T04:42:04.679Z,5.48
2022-09-23T04:42:36.164Z,5.47
2022-09-23T04:43:11.705Z,5.43
2022-09-23T04:43:45.083Z,5.46
2022-09-23T04:44:17.122Z,5.48
2022-09-23T04:44:48.769Z,5.52
2022-09-23T04:45:20.497Z,5.53
2022-09-23T04:46:02.828Z,5.53
2022-09-23T04:46:34.430Z,5.55
2022-09-23T04:47:06.192Z,5.57
2022-09-23T04:47:37.907Z,5.57
2022-09-23T04:48:10.744Z,5.62
2022-09-23T04:48:42.706Z,5.61
2022-09-23T04:49:15.728Z,5.59
2022-09-23T04:49:47.207Z,5.58
2022-09-23T04:50:19.047Z,5.55
2022-09-23T04:50:50.549Z,5.54
2022-09-23T04:51:23.665Z,5.58
2022-09-23T04:51:55.239Z,5.54
2022-09-23T04:52:27.393Z,5.49
2022-09-23T04:52:58.982Z,5.42
2022-09-23T04:53:31.584Z,5.45
2022-09-23T04:54:03.204Z,5.49
2022-09-23T04:54:34.956Z,5.50
2022-09-23T04:55:11.098Z,5.42
2022-09-23T04:55:43.569Z,5.44
2022-09-23T04:56:17.545Z,5.42
2022-09-23T04:56:49.116Z,5.42
2022-09-23T04:57:20.957Z,5.37
2022-09-23T04:57:52.460Z,5.42
2022-09-23T04:58:25.429Z,5.44
2022-09-23T04:58:58.255Z,5.44
2022-09-23T04:59:30.467Z,5.47
2022-09-23T05:00:02.193Z,5.50
2022-09-23T05:00:33.791Z,5.53
2022-09-23T05:01:24.310Z,5.48
2022-09-23T05:01:56.037Z,5.48
2022-09-23T05:02:28.283Z,5.46
2022-09-23T05:02:59.821Z,5.48
2022-09-23T05:03:35.736Z,5.47
2022-09-23T05:04:10.107Z,5.44
2022-09-23T05:04:41.762Z,5.47
2022-09-23T05:05:14.219Z,5.48
2022-09-23T05:05:46.219Z,5.49
2022-09-23T05:06:17.733Z,5.49
2022-09-23T05:06:49.263Z,5.48
2022-09-23T05:07:20.873Z,5.49
2022-09-23T05:07:55.143Z,5.48
2022-09-23T05:08:26.763Z,5.47
2022-09-23T05:08:59.156Z,5.52
2022-09-23T05:09:31.129Z,5.51
2022-09-23T05:10:02.716Z,5.51
2022-09-23T05:10:34.783Z,5.50
2022-09-23T05:11:06.375Z,5.54
2022-09-23T05:11:37.878Z,5.52
2022-09-23T05:12:09.665Z,5.57
2022-09-23T05:12:41.383Z,5.59
2022-09-23T05:13:12.900Z,5.58
2022-09-23T05:13:48.077Z,5.61
2022-09-23T05:14:19.944Z,5.62
2022-09-23T05:14:51.633Z,5.63
2022-09-23T05:15:23.127Z,5.63
2022-09-23T05:16:02.492Z,5.65
2022-09-23T05:16:34.230Z,5.66
2022-09-23T05:17:06.899Z,5.66
2022-09-23T05:17:38.569Z,5.64
2022-09-23T05:18:10.204Z,5.65
2022-09-23T05:18:42.934Z,5.64
2022-09-23T05:19:14.568Z,5.66
2022-09-23T05:19:46.195Z,5.66
2022-09-23T05:20:19.175Z,5.63
2022-09-23T05:20:55.449Z,5.64
2022-09-23T05:21:28.972Z,5.65
2022-09-23T05:22:00.664Z,5.62
2022-09-23T05:22:32.324Z,5.66
2022-09-23T05:23:03.964Z,5.70
2022-09-23T05:23:36.322Z,5.67
2022-09-23T05:24:08.762Z,5.69
2022-09-23T05:24:40.589Z,5.68
2022-09-23T05:25:12.105Z,5.68
2022-09-23T05:25:45.299Z,5.67
2022-09-23T05:26:16.883Z,5.65
2022-09-23T05:26:48.397Z,5.65
2022-09-23T05:27:20.692Z,5.65
2022-09-23T05:27:52.463Z,5.65
2022-09-23T05:28:24.005Z,5.64
2022-09-23T05:28:55.984Z,5.64
2022-09-23T05:29:28.621Z,5.63
2022-09-23T05:30:01.066Z,5.61
2022-09-23T05:30:32.578Z,5.60
2022-09-23T05:31:17.165Z,5.59
2022-09-23T05:31:51.117Z,5.60
2022-09-23T05:32:22.660Z,5.60
2022-09-23T05:32:54.157Z,5.61
2022-09-23T05:33:25.750Z,5.61
2022-09-23T05:34:00.351Z,5.64
2022-09-23T05:34:32.419Z,5.66
2022-09-23T05:35:04.644Z,5.68
2022-09-23T05:35:36.172Z,5.70
2022-09-23T05:36:07.913Z,5.70
2022-09-23T05:36:39.442Z,5.73
2022-09-23T05:37:11.235Z,5.73
2022-09-23T05:37:42.736Z,5.73
2022-09-23T05:38:16.797Z,5.77
2022-09-23T05:38:49.988Z,5.81
2022-09-23T05:39:21.667Z,5.84
2022-09-23T05:39:53.318Z,5.86
2022-09-23T05:40:24.815Z,5.90
2022-09-23T05:41:05.177Z,5.94
2022-09-23T05:41:36.771Z,5.96
2022-09-23T05:42:08.529Z,6.01
2022-09-23T05:42:40.259Z,6.04
2022-09-23T05:43:11.893Z,6.09
2022-09-23T05:43:43.664Z,6.15
2022-09-23T05:44:15.189Z,6.18
2022-09-23T05:44:47.159Z,6.20
2022-09-23T05:45:18.754Z,6.25
2022-09-23T05:45:50.906Z,6.25
2022-09-23T05:46:30.454Z,6.35
2022-09-23T05:47:02.748Z,6.38
2022-09-23T05:47:34.348Z,6.41
2022-09-23T05:48:05.915Z,6.45
2022-09-23T05:48:38.172Z,6.47
2022-09-23T05:49:10.179Z,6.53
2022-09-23T05:49:58.497Z,6.58
2022-09-23T05:50:30.929Z,6.67
2022-09-23T05:51:03.287Z,6.73
2022-09-23T05:51:35.761Z,6.76
2022-09-23T05:52:07.329Z,6.83
2022-09-23T05:52:39.062Z,6.86
2022-09-23T05:53:10.536Z,6.91
2022-09-23T05:53:44.870Z,6.94
2022-09-23T05:54:16.402Z,7.01
2022-09-23T05:54:47.921Z,7.05
2022-09-23T05:55:19.733Z,7.07
2022-09-23T05:55:51.481Z,7.10
2022-09-23T05:56:24.362Z,7.13
2022-09-23T05:56:56.610Z,7.19
2022-09-23T05:57:30.193Z,7.24
2022-09-23T05:58:01.691Z,7.30
2022-09-23T05:58:33.262Z,7.33
2022-09-23T05:59:06.712Z,7.38
2022-09-23T05:59:38.347Z,7.39
2022-09-23T06:00:10.648Z,7.41
2022-09-23T06:00:44.125Z,7.45
2022-09-23T06:01:26.588Z,7.46
2022-09-23T06:01:59.146Z,7.48
2022-09-23T06:02:30.770Z,7.51
2022-09-23T06:03:02.426Z,7.53
2022-09-23T06:03:35.082Z,7.54
2022-09-23T06:04:08.163Z,7.55
2022-09-23T06:04:40.096Z,7.56
2022-09-23T06:05:12.202Z,7.56
2022-09-23T06:05:43.747Z,7.60
2022-09-23T06:06:18.143Z,7.61
2022-09-23T06:06:49.668Z,7.61
2022-09-23T06:07:21.261Z,7.67
2022-09-23T06:07:52.759Z,7.67
2022-09-23T06:08:24.257Z,7.73
2022-09-23T06:08:56.467Z,7.80
2022-09-23T06:09:29.293Z,7.82
2022-09-23T06:10:02.308Z,7.89
2022-09-23T06:10:54.313Z,7.91
2022-09-23T06:11:27.300Z,7.94
2022-09-23T06:11:58.790Z,7.97
2022-09-23T06:12:31.317Z,8.01
2022-09-23T06:13:02.930Z,8.01
2022-09-23T06:13:38.241Z,8.02
2022-09-23T06:14:12.592Z,8.06
2022-09-23T06:14:44.074Z,8.12
2022-09-23T06:15:15.881Z,8.14
2022-09-23T06:15:47.501Z,8.11
2022-09-23T06:16:19.050Z,8.17
2022-09-23T06:16:50.544Z,8.16
2022-09-23T06:17:22.028Z,8.17
2022-09-23T06:17:53.523Z,8.19
2022-09-23T06:18:25.065Z,8.21
2022-09-23T06:18:58.870Z,8.23
2022-09-23T06:19:33.300Z,8.25
2022-09-23T06:20:05.069Z,8.26
2022-09-23T06:20:36.852Z,8.26
2022-09-23T06:21:09.727Z,8.29
2022-09-23T06:21:41.477Z,8.33
2022-09-23T06:22:16.863Z,8.32
2022-09-23T06:22:51.215Z,8.38
2022-09-23T06:23:26.122Z,8.42
2022-09-23T06:24:02.854Z,8.48
2022-09-23T06:24:34.504Z,8.54
2022-09-23T06:25:06.132Z,8.56
2022-09-23T06:25:38.541Z,8.59
2022-09-23T06:26:11.835Z,8.57
2022-09-23T06:26:43.387Z,8.60
2022-09-23T06:27:15.163Z,8.61
2022-09-23T06:27:54.398Z,8.64
2022-09-23T06:28:26.116Z,8.67
2022-09-23T06:28:58.899Z,8.68
2022-09-23T06:29:32.068Z,8.71
2022-09-23T06:30:04.273Z,8.76
2022-09-23T06:30:35.981Z,8.76
2022-09-23T06:31:13.381Z,8.69
2022-09-23T06:31:45.481Z,8.77
2022-09-23T06:32:17.047Z,8.75
2022-09-23T06:32:52.003Z,8.78
2022-09-23T06:33:34.515Z,8.80
2022-09-23T06:34:14.121Z,8.83
2022-09-23T06:34:51.518Z,8.83
2022-09-23T06:35:27.762Z,8.88
2022-09-23T06:36:01.008Z,8.86
2022-09-23T06:36:41.933Z,8.82
2022-09-23T06:37:20.255Z,8.88
2022-09-23T06:37:53.303Z,8.90
2022-09-23T06:38:25.622Z,8.95
2022-09-23T06:38:57.157Z,8.94
2022-09-23T06:39:30.051Z,8.94
2022-09-23T06:40:01.908Z,8.96
2022-09-23T06:40:33.468Z,8.97
2022-09-23T06:41:05.078Z,8.93
2022-09-23T06:41:36.568Z,8.97
2022-09-23T06:42:09.031Z,9.00
2022-09-23T06:42:41.396Z,9.01
2022-09-23T06:43:12.911Z,8.98
2022-09-23T06:43:44.493Z,8.96
2022-09-23T06:44:16.194Z,8.97
2022-09-23T06:44:47.661Z,8.97
2022-09-23T06:45:19.140Z,8.98
2022-09-23T06:45:54.600Z,9.00
2022-09-23T06:46:26.380Z,9.03
2022-09-23T06:46:58.014Z,9.06
2022-09-23T06:47:29.994Z,9.06
2022-09-23T06:48:06.103Z,9.11
2022-09-23T06:48:37.671Z,9.13
2022-09-23T06:49:09.276Z,9.18
2022-09-23T06:49:41.138Z,9.16
2022-09-23T06:50:12.857Z,9.21
2022-09-23T06:50:44.345Z,9.18
2022-09-23T06:51:19.289Z,9.26
2022-09-23T06:51:50.833Z,9.29
2022-09-23T06:52:22.325Z,9.32
2022-09-23T06:52:56.193Z,9.31
2022-09-23T06:53:28.618Z,9.32
2022-09-23T06:54:00.359Z,9.26
2022-09-23T06:54:31.934Z,9.34
2022-09-23T06:55:03.645Z,9.35
2022-09-23T06:55:37.939Z,9.36
2022-09-23T06:56:11.159Z,9.35
2022-09-23T06:56:43.554Z,9.37
2022-09-23T06:57:15.144Z,9.40
2022-09-23T06:57:46.632Z,9.46
2022-09-23T06:58:18.105Z,9.46
2022-09-23T06:58:54.743Z,9.52
2022-09-23T06:59:26.289Z,9.63
2022-09-23T06:59:59.150Z,9.56
2022-09-23T07:00:30.662Z,9.53
2022-09-23T07:01:04.066Z,9.57
2022-09-23T07:01:35.850Z,9.65
2022-09-23T07:02:09.532Z,9.66
2022-09-23T07:02:44.584Z,9.66
2022-09-23T07:03:16.200Z,9.65
2022-09-23T07:03:48.527Z,9.68
2022-09-23T07:04:20.268Z,9.66
2022-09-23T07:04:52.715Z,9.65
2022-09-23T07:05:24.473Z,9.69
2022-09-23T07:05:56.362Z,9.66
2022-09-23T07:06:27.956Z,9.66
2022-09-23T07:06:59.695Z,9.75
2022-09-23T07:07:31.513Z,9.77
2022-09-23T07:08:03.329Z,9.77
2022-09-23T07:08:35.686Z,9.82
2022-09-23T07:09:08.469Z,9.82
2022-09-23T07:09:40.355Z,9.86
2022-09-23T07:10:12.326Z,9.93
2022-09-23T07:10:51.237Z,9.94
2022-09-23T07:11:23.085Z,10.00
2022-09-23T07:11:54.667Z,10.07
2022-09-23T07:12:26.192Z,10.06
2022-09-23T07:13:02.125Z,10.10
2022-09-23T07:13:34.276Z,10.15
2022-09-23T07:14:05.773Z,10.19
2022-09-23T07:14:37.289Z,10.17
2022-09-23T07:15:09.833Z,10.23
2022-09-23T07:15:41.540Z,10.28
2022-09-23T07:16:13.211Z,10.32
2022-09-23T07:16:45.202Z,10.30
2022-09-23T07:17:16.676Z,10.30
2022-09-23T07:17:48.194Z,10.30
2022-09-23T07:18:20.668Z,10.33
2022-09-23T07:18:53.419Z,10.41
2022-09-23T07:19:26.352Z,10.45
2022-09-23T07:19:58.518Z,10.48
2022-09-23T07:20:30.156Z,10.52
2022-09-23T07:21:19.602Z,10.62
2022-09-23T07:21:51.105Z,10.66
2022-09-23T07:22:24.350Z,10.67
2022-09-23T07:22:56.910Z,10.70
2022-09-23T07:23:28.402Z,10.72
2022-09-23T07:23:59.989Z,10.75
2022-09-23T07:24:31.480Z,10.73
2022-09-23T07:25:03.273Z,10.79
2022-09-23T07:25:34.748Z,10.76
2022-09-23T07:26:07.994Z,10.80
2022-09-23T07:26:44.930Z,10.87
2022-09-23T07:27:19.901Z,10.88
2022-09-23T07:27:51.604Z,10.87
2022-09-23T07:28:24.032Z,10.89
2022-09-23T07:28:56.869Z,10.87
2022-09-23T07:29:32.249Z,10.88
2022-09-23T07:30:09.994Z,10.93
2022-09-23T07:30:57.931Z,10.95
2022-09-23T07:31:39.343Z,10.99
2022-09-23T07:32:14.384Z,11.05
2022-09-23T07:32:49.010Z,11.07
2022-09-23T07:33:31.666Z,11.10
2022-09-23T07:34:03.963Z,11.06
2022-09-23T07:34:36.384Z,11.13
2022-09-23T07:35:08.728Z,11.09
2022-09-23T07:35:41.372Z,11.14
2022-09-23T07:36:17.254Z,11.17
2022-09-23T07:36:48.749Z,11.18
2022-09-23T07:37:20.203Z,11.07
2022-09-23T07:37:51.692Z,11.12
2022-09-23T07:38:30.157Z,11.18
2022-09-23T07:39:03.628Z,11.23
2022-09-23T07:39:36.788Z,11.21
2022-09-23T07:40:09.606Z,11.26
2022-09-23T07:40:41.216Z,11.25
2022-09-23T07:41:15.916Z,11.31
2022-09-23T07:41:48.121Z,11.33
2022-09-23T07:42:19.601Z,11.32
2022-09-23T07:42:51.409Z,11.33
2022-09-23T07:43:22.977Z,11.38
2022-09-23T07:43:58.873Z,11.38
2022-09-23T07:44:33.946Z,11.41
2022-09-23T07:45:07.247Z,11.43
2022-09-23T07:45:39.901Z,11.46
2022-09-23T07:46:16.453Z,11.45
2022-09-23T07:46:49.746Z,11.48
2022-09-23T07:47:21.344Z,11.52
2022-09-23T07:47:53.449Z,11.56
2022-09-23T07:48:25.068Z,11.57
2022-09-23T07:48:56.663Z,11.56
2022-09-23T07:49:28.211Z,11.56
2022-09-23T07:49:59.739Z,11.53
2022-09-23T07:50:31.215Z,11.46